Time;durP1;ratioP1;P1;durP2;ratioP2;P2;SDS_P1;SDS_P2;PMS_P1;PMS_P2;Temp;Humidity;BMP_temperature;BMP_pressure;BME280_temperature;BME280_humidity;BME280_pressure;Samples;Min_cycle;Max_cycle;Signal;HPM_P1;HPM_P2
2022/04/05 00:00:57;;;;;;;4.72;3.08;;;;;;;8.59;51.38;96620.91;5024508;28;20021;-85
2022/04/05 00:03:23;;;;;;;4.30;3.17;;;;;;;8.33;52.43;96606.88;5008814;28;20022;-84
2022/04/05 00:05:48;;;;;;;4.75;3.10;;;;;;;8.53;51.41;96606.31;4992188;28;20036;-85
2022/04/05 00:08:16;;;;;;;4.03;3.58;;;;;;;8.60;52.02;96595.75;5011254;28;20479;-82
2022/04/05 00:10:42;;;;;;;4.43;3.25;;;;;;;8.79;51.53;96598.75;5028261;28;20076;-85
2022/04/05 00:13:08;;;;;;;5.35;3.42;;;;;;;8.38;52.84;96591.38;4996111;28;20080;-83
2022/04/05 00:15:34;;;;;;;3.92;2.80;;;;;;;8.65;52.08;96598.38;4995194;28;20060;-85
2022/04/05 00:18:00;;;;;;;5.53;3.50;;;;;;;8.65;52.43;96598.38;4995614;28;20486;-84
2022/04/05 00:20:27;;;;;;;5.20;2.92;;;;;;;8.66;52.61;96605.16;5027957;28;20079;-85
2022/04/05 00:22:56;;;;;;;4.97;3.50;;;;;;;8.59;52.45;96594.97;4995618;28;20026;-84
2022/04/05 00:25:21;;;;;;;3.97;3.38;;;;;;;8.80;51.98;96595.94;4994790;28;20025;-83
2022/04/05 00:27:47;;;;;;;5.20;3.60;;;;;;;8.34;53.82;96597.28;5027909;28;20116;-83
2022/04/05 00:30:14;;;;;;;5.20;3.20;;;;;;;8.57;52.81;96594.44;4995474;28;20084;-85
2022/04/05 00:32:40;;;;;;;4.88;3.17;;;;;;;8.36;54.01;96585.66;5044603;28;20401;-83
2022/04/05 00:35:06;;;;;;;5.25;3.20;;;;;;;8.45;54.21;96599.00;5027493;28;20038;-84
2022/04/05 00:37:31;;;;;;;4.05;2.70;;;;;;;8.17;54.49;96589.56;4994942;28;20029;-86
2022/04/05 00:39:56;;;;;;;4.07;3.20;;;;;;;8.43;54.57;96591.44;5044593;28;20421;-87
2022/04/05 00:42:22;;;;;;;4.30;3.00;;;;;;;8.35;55.00;96586.66;4995111;28;20048;-87
2022/04/05 00:44:47;;;;;;;6.40;3.63;;;;;;;8.53;54.44;96579.59;5010538;28;20397;-85
2022/04/05 00:47:17;;;;;;;5.38;3.90;;;;;;;8.52;54.59;96578.03;4995107;28;20254;-85
2022/04/05 00:49:45;;;;;;;3.70;3.08;;;;;;;8.25;55.84;96573.59;5027413;28;20042;-84
2022/04/05 00:52:15;;;;;;;6.00;3.75;;;;;;;7.94;57.27;96583.63;5012124;28;20548;-84
2022/04/05 00:54:42;;;;;;;6.38;3.40;;;;;;;8.44;56.06;96574.84;5027771;28;20409;-83
2022/04/05 00:57:13;;;;;;;4.82;3.10;;;;;;;8.49;55.96;96560.38;5011775;28;20112;-85
2022/04/05 00:59:41;;;;;;;5.63;3.00;;;;;;;8.32;56.80;96571.59;5027696;28;20108;-84
2022/04/05 01:02:10;;;;;;;6.90;3.58;;;;;;;8.20;57.81;96576.13;5007783;28;20026;-84
2022/04/05 01:04:35;;;;;;;5.05;2.95;;;;;;;8.40;57.61;96568.56;4990991;28;20033;-84
2022/04/05 01:07:04;;;;;;;4.90;3.67;;;;;;;8.07;58.68;96566.91;4980393;28;20060;-84
2022/04/05 01:09:29;;;;;;;4.68;3.10;;;;;;;8.19;58.55;96564.97;5007583;28;20452;-85
2022/04/05 01:11:55;;;;;;;5.30;3.60;;;;;;;8.42;58.70;96557.94;4990971;28;20061;-85
2022/04/05 01:14:20;;;;;;;5.07;3.40;;;;;;;8.26;58.85;96559.59;5007366;28;20104;-85
2022/04/05 01:16:46;;;;;;;4.63;3.42;;;;;;;8.39;59.13;96563.59;4991499;28;20118;-84
2022/04/05 01:19:12;;;;;;;5.55;3.63;;;;;;;8.13;60.22;96571.13;5007430;28;20048;-84
2022/04/05 01:21:37;;;;;;;5.20;3.58;;;;;;;8.21;59.96;96567.34;5023951;28;20033;-83
2022/04/05 01:24:12;;;;;;;5.90;4.13;;;;;;;8.01;61.53;96558.28;5006851;28;20030;-84
2022/04/05 01:26:50;;;;;;;6.63;4.05;;;;;;;8.03;61.09;96564.00;5007949;28;20301;-86
2022/04/05 01:29:17;;;;;;;5.65;4.20;;;;;;;7.95;61.74;96564.47;4991031;28;20133;-86
2022/04/05 01:31:44;;;;;;;6.45;4.32;;;;;;;7.65;63.12;96560.47;4991150;28;20371;-86
2022/04/05 01:34:10;;;;;;;6.60;3.88;;;;;;;7.31;64.28;96547.59;5007468;28;20022;-84
2022/04/05 01:36:43;;;;;;;7.10;4.00;;;;;;;7.67;63.29;96553.25;4990710;28;20041;-84
2022/04/05 01:39:10;;;;;;;6.22;4.40;;;;;;;7.86;62.77;96558.94;5007090;28;20100;-83
2022/04/05 01:41:36;;;;;;;6.85;3.85;;;;;;;7.84;62.86;96549.81;4991048;28;20033;-86
2022/04/05 01:44:01;;;;;;;6.38;4.80;;;;;;;7.52;64.20;96547.88;5023346;28;20037;-85
2022/04/05 01:46:27;;;;;;;5.55;3.72;;;;;;;7.69;63.78;96546.03;5007276;28;20100;-86
2022/04/05 01:48:52;;;;;;;6.70;4.43;;;;;;;7.92;63.82;96553.78;4990830;28;20480;-85
2022/04/05 01:51:18;;;;;;;7.03;4.70;;;;;;;7.80;64.00;96548.75;4990781;28;20148;-85
2022/04/05 01:53:43;;;;;;;5.85;4.18;;;;;;;7.79;63.93;96539.38;5007018;28;20030;-87
2022/04/05 01:56:09;;;;;;;5.45;4.07;;;;;;;7.79;63.90;96549.75;4991371;28;20221;-86
2022/04/05 01:58:37;;;;;;;6.47;4.43;;;;;;;7.77;63.74;96546.63;4974740;28;20034;-85
2022/04/05 02:01:03;;;;;;;5.82;4.43;;;;;;;7.48;65.57;96546.78;4990233;28;20033;-85
2022/04/05 02:03:29;;;;;;;7.10;4.22;;;;;;;7.91;64.35;96550.41;4990264;28;20379;-84
2022/04/05 02:05:55;;;;;;;5.78;4.38;;;;;;;7.75;64.45;96548.69;4990546;28;20036;-85
2022/04/05 02:08:20;;;;;;;7.28;4.18;;;;;;;7.99;63.84;96555.16;5023967;28;20485;-84
2022/04/05 02:10:45;;;;;;;6.93;4.22;;;;;;;7.92;64.88;96543.41;5007016;28;20449;-86
2022/04/05 02:13:11;;;;;;;5.65;4.20;;;;;;;7.66;65.83;96549.09;5023158;28;20030;-83
2022/04/05 02:15:37;;;;;;;5.80;4.35;;;;;;;8.02;64.70;96549.50;4974052;28;20057;-84
2022/04/05 02:18:02;;;;;;;5.35;4.10;;;;;;;7.77;65.27;96551.81;5006662;28;20320;-85
2022/04/05 02:20:28;;;;;;;7.15;4.30;;;;;;;7.75;65.09;96549.44;5006877;28;20030;-85
2022/04/05 02:22:53;;;;;;;7.18;4.28;;;;;;;7.78;65.45;96558.53;5006942;28;20461;-86
2022/04/05 02:25:18;;;;;;;6.40;4.55;;;;;;;7.58;66.17;96562.47;5006412;28;20026;-84
2022/04/05 02:27:45;;;;;;;4.95;3.90;;;;;;;7.88;65.40;96563.84;5007140;28;20393;-87
2022/04/05 02:30:11;;;;;;;6.38;4.82;;;;;;;7.84;64.92;96565.38;5006955;28;20057;-85
2022/04/05 02:32:36;;;;;;;6.85;4.15;;;;;;;7.77;65.79;96564.75;5006706;28;20033;-86
2022/04/05 02:35:03;;;;;;;5.88;4.82;;;;;;;7.84;65.35;96562.78;5023218;28;20029;-84
2022/04/05 02:37:28;;;;;;;5.88;4.38;;;;;;;7.96;64.71;96568.59;4990401;28;20406;-84
2022/04/05 02:39:53;;;;;;;5.18;3.70;;;;;;;7.89;64.88;96573.19;5007262;28;20030;-85
2022/04/05 02:42:19;;;;;;;5.38;3.78;;;;;;;7.95;65.25;96569.66;5023477;28;20084;-84
2022/04/05 02:44:44;;;;;;;5.78;3.72;;;;;;;7.82;65.34;96560.41;5006303;28;20494;-85
2022/04/05 02:47:10;;;;;;;4.93;3.85;;;;;;;7.85;65.10;96561.75;5007087;28;20113;-85
2022/04/05 02:49:36;;;;;;;4.82;4.00;;;;;;;7.91;65.34;96557.41;5006448;28;20063;-85
2022/04/05 02:52:02;;;;;;;3.97;3.50;;;;;;;7.98;65.01;96550.22;5006449;28;20030;-82
2022/04/05 02:54:28;;;;;;;7.00;4.18;;;;;;;7.90;65.32;96548.84;4973561;28;20057;-85
2022/04/05 02:56:54;;;;;;;5.32;4.03;;;;;;;7.76;66.19;96540.66;5022990;28;20068;-84
2022/04/05 02:59:19;;;;;;;4.30;3.28;;;;;;;7.74;66.66;96541.91;5006397;28;20459;-85
2022/04/05 03:01:44;;;;;;;4.97;3.50;;;;;;;7.95;65.40;96540.34;4989709;28;20469;-83
2022/04/05 03:04:10;;;;;;;4.30;3.17;;;;;;;7.76;66.08;96539.88;5006228;28;20651;-84
2022/04/05 03:06:35;;;;;;;4.43;3.30;;;;;;;7.86;65.31;96539.97;5006205;28;20033;-84
2022/04/05 03:09:00;;;;;;;4.20;3.20;;;;;;;7.90;65.46;96545.47;5022956;28;20064;-84
2022/04/05 03:11:26;;;;;;;5.47;3.33;;;;;;;8.10;65.23;96537.13;5023278;28;20065;-83
2022/04/05 03:13:52;;;;;;;4.47;3.03;;;;;;;7.60;67.10;96539.69;4977047;28;20026;-85
2022/04/05 03:16:17;;;;;;;5.13;3.50;;;;;;;7.94;65.91;96531.00;5009874;28;20083;-84
2022/04/05 03:18:46;;;;;;;3.90;2.92;;;;;;;7.87;66.21;96534.56;4993667;28;20108;-85
2022/04/05 03:21:12;;;;;;;5.47;3.58;;;;;;;7.86;66.64;96543.38;5011521;28;20206;-85
2022/04/05 03:23:39;;;;;;;4.53;2.92;;;;;;;7.71;66.90;96543.19;4976836;28;20072;-86
2022/04/05 03:26:04;;;;;;;4.82;3.50;;;;;;;7.96;66.09;96536.72;5009570;28;20076;-83
2022/04/05 03:28:30;;;;;;;3.60;2.75;;;;;;;7.87;66.47;96531.97;4993435;28;20066;-86
2022/04/05 03:30:55;;;;;;;3.92;2.75;;;;;;;7.94;66.22;96515.47;4993248;28;20092;-85
2022/04/05 03:33:20;;;;;;;3.55;2.92;;;;;;;7.86;66.57;96529.63;4993063;28;20057;-83
2022/04/05 03:35:46;;;;;;;3.65;2.80;;;;;;;7.96;66.04;96528.94;5009408;28;20466;-82
2022/04/05 03:38:11;;;;;;;3.40;2.72;;;;;;;7.74;66.92;96532.31;4993651;28;20130;-86
2022/04/05 03:40:37;;;;;;;3.35;2.80;;;;;;;7.79;66.67;96523.84;5009467;28;20030;-83
2022/04/05 03:43:03;;;;;;;4.80;3.30;;;;;;;7.84;66.85;96527.25;5009058;28;20045;-84
2022/04/05 03:45:29;;;;;;;3.90;3.03;;;;;;;8.01;66.02;96529.78;4993211;28;20564;-85
2022/04/05 03:47:54;;;;;;;3.38;2.58;;;;;;;7.95;66.25;96538.53;4993456;28;20088;-83
2022/04/05 03:50:19;;;;;;;3.70;2.30;;;;;;;8.09;65.90;96543.34;5009230;28;20164;-86
2022/04/05 03:52:45;;;;;;;4.38;2.90;;;;;;;7.92;66.14;96531.25;4976774;28;20516;-85
2022/04/05 03:55:11;;;;;;;5.10;3.22;;;;;;;7.80;66.87;96517.66;4976245;28;20033;-85
2022/04/05 03:57:37;;;;;;;5.35;2.83;;;;;;;7.73;67.37;96530.78;4992769;28;20543;-84
2022/04/05 04:00:03;;;;;;;4.82;3.05;;;;;;;7.50;67.91;96514.47;5009087;28;20065;-82
2022/04/05 04:02:34;;;;;;;4.57;2.60;;;;;;;7.59;67.20;96517.41;5009027;28;20025;-84
2022/04/05 04:04:59;;;;;;;5.68;2.63;;;;;;;7.90;67.08;96525.53;5011701;28;20124;-83
2022/04/05 04:07:25;;;;;;;5.15;2.80;;;;;;;7.94;67.18;96531.78;5019277;28;20533;-84
2022/04/05 04:09:51;;;;;;;3.28;2.53;;;;;;;7.64;67.67;96535.59;5011988;28;20405;-83
2022/04/05 04:12:17;;;;;;;4.75;3.13;;;;;;;8.05;66.30;96543.03;5028677;28;20025;-84
2022/04/05 04:14:42;;;;;;;3.58;2.70;;;;;;;8.00;66.63;96538.59;5011660;28;20037;-83
2022/04/05 04:17:07;;;;;;;3.38;2.75;;;;;;;8.23;65.79;96539.34;5011883;28;20132;-82
2022/04/05 04:19:34;;;;;;;4.85;3.53;;;;;;;7.99;66.17;96539.63;5011893;28;20361;-83
2022/04/05 04:22:00;;;;;;;5.40;3.20;;;;;;;8.07;66.34;96544.38;5028481;28;20436;-84
2022/04/05 04:24:25;;;;;;;4.40;3.40;;;;;;;8.15;66.28;96542.38;5010671;28;20038;-85
2022/04/05 04:26:50;;;;;;;3.63;3.17;;;;;;;8.14;65.45;96531.22;5045238;28;20034;-84
2022/04/05 04:29:16;;;;;;;3.80;3.08;;;;;;;8.19;65.08;96533.88;5011578;28;20026;-83
2022/04/05 04:31:41;;;;;;;4.43;3.50;;;;;;;8.30;65.51;96534.75;5028132;28;20021;-82
2022/04/05 04:34:07;;;;;;;5.20;3.50;;;;;;;8.11;66.30;96531.69;5011098;28;20036;-83
2022/04/05 04:36:32;;;;;;;5.22;3.75;;;;;;;7.89;66.73;96531.72;5027783;28;20503;-84
2022/04/05 04:38:58;;;;;;;5.07;3.42;;;;;;;7.84;66.74;96532.44;5028076;28;20624;-86
2022/04/05 04:41:24;;;;;;;4.45;3.42;;;;;;;8.04;66.43;96538.91;5028270;28;20490;-84
2022/04/05 04:43:50;;;;;;;4.70;3.92;;;;;;;8.23;65.59;96526.38;5027188;28;20029;-83
2022/04/05 04:46:15;;;;;;;5.47;3.92;;;;;;;8.10;66.00;96539.72;5044170;28;20037;-83
2022/04/05 04:48:41;;;;;;;5.53;4.10;;;;;;;8.00;66.04;96530.81;5028029;28;20497;-82
2022/04/05 04:51:06;;;;;;;6.63;4.68;;;;;;;7.94;65.88;96534.38;5027534;28;20032;-85
2022/04/05 04:53:32;;;;;;;7.28;4.68;;;;;;;7.94;66.22;96536.97;5010865;28;20486;-81
2022/04/05 04:55:57;;;;;;;6.07;4.55;;;;;;;7.78;66.87;96517.06;5027476;28;20443;-84
2022/04/05 04:58:23;;;;;;;5.75;4.47;;;;;;;7.80;66.91;96525.41;5011458;28;20026;-84
2022/04/05 05:00:48;;;;;;;8.18;5.72;;;;;;;7.66;67.84;96541.31;4993439;28;20029;-85
2022/04/05 05:03:18;;;;;;;6.05;4.47;;;;;;;7.60;67.33;96531.13;5009775;28;20485;-84
2022/04/05 05:05:44;;;;;;;6.22;4.70;;;;;;;7.82;66.68;96533.72;5009589;28;20178;-83
2022/04/05 05:08:09;;;;;;;6.13;5.05;;;;;;;7.86;66.86;96532.22;5028209;28;20075;-85
2022/04/05 05:10:34;;;;;;;6.00;5.25;;;;;;;7.88;66.18;96525.78;5010121;28;20474;-82
2022/04/05 05:13:00;;;;;;;7.10;4.93;;;;;;;7.76;66.96;96525.13;5009008;28;20033;-84
2022/04/05 05:15:25;;;;;;;7.10;5.20;;;;;;;7.99;65.95;96544.81;5026240;28;20037;-82
2022/04/05 05:17:51;;;;;;;6.80;5.05;;;;;;;7.96;66.07;96549.69;5026351;28;20086;-84
2022/04/05 05:20:16;;;;;;;6.97;4.97;;;;;;;7.87;65.95;96554.53;5025917;28;20048;-84
2022/04/05 05:22:43;;;;;;;7.13;5.32;;;;;;;8.03;66.00;96553.66;5009548;28;20412;-81
2022/04/05 05:25:09;;;;;;;6.63;4.82;;;;;;;7.91;66.33;96547.03;5009143;28;20083;-84
2022/04/05 05:27:37;;;;;;;7.15;4.65;;;;;;;7.79;66.10;96544.56;4993223;28;20029;-81
2022/04/05 05:30:05;;;;;;;8.38;5.63;;;;;;;8.05;65.82;96543.84;5009885;28;20059;-81
2022/04/05 05:32:30;;;;;;;7.43;4.75;;;;;;;7.79;66.19;96541.97;5009705;28;20138;-83
2022/04/05 05:34:56;;;;;;;7.78;4.95;;;;;;;7.60;67.06;96547.47;5009058;28;20588;-83
2022/04/05 05:37:21;;;;;;;7.28;5.18;;;;;;;7.75;66.39;96556.44;5026944;28;20370;-84
2022/04/05 05:39:47;;;;;;;8.07;5.50;;;;;;;7.61;67.02;96550.84;5026692;28;20186;-82
2022/04/05 05:42:13;;;;;;;7.15;5.28;;;;;;;7.86;66.17;96561.53;5010637;28;20497;-82
2022/04/05 05:44:38;;;;;;;7.05;5.30;;;;;;;7.95;66.06;96563.66;5043194;28;20489;-82
2022/04/05 05:47:08;;;;;;;8.40;5.30;;;;;;;7.45;67.25;96565.38;5010123;28;20033;-83
2022/04/05 05:49:34;;;;;;;9.02;5.22;;;;;;;7.75;66.33;96570.19;5010668;28;20116;-82
2022/04/05 05:51:59;;;;;;;7.75;5.38;;;;;;;7.31;68.05;96563.13;5026756;28;20116;-82
2022/04/05 05:54:25;;;;;;;6.15;4.47;;;;;;;7.40;67.63;96566.13;5042927;28;20029;-83
2022/04/05 05:56:50;;;;;;;8.55;5.57;;;;;;;7.42;67.85;96563.28;5026423;28;20088;-82
2022/04/05 05:59:16;;;;;;;7.72;5.13;;;;;;;7.35;67.57;96565.25;5010600;28;20037;-83
2022/04/05 06:01:41;;;;;;;7.18;5.38;;;;;;;7.22;68.47;96546.44;5017786;28;20504;-83
2022/04/05 06:04:07;;;;;;;7.95;6.00;;;;;;;7.42;67.57;96550.31;5006660;28;20033;-81
2022/04/05 06:06:32;;;;;;;7.68;5.65;;;;;;;7.55;67.09;96547.38;5012305;28;20053;-81
2022/04/05 06:08:58;;;;;;;8.13;5.90;;;;;;;7.45;68.05;96563.59;5026654;28;20482;-81
2022/04/05 06:11:24;;;;;;;8.02;5.28;;;;;;;7.59;67.27;96556.28;5010123;28;20083;-80
2022/04/05 06:13:50;;;;;;;6.45;4.88;;;;;;;7.51;67.73;96580.00;5009779;28;20026;-81
2022/04/05 06:16:15;;;;;;;7.90;5.50;;;;;;;7.44;67.49;96574.97;5027691;28;20813;-80
2022/04/05 06:18:44;;;;;;;8.40;5.28;;;;;;;7.56;68.16;96587.81;5026417;28;20432;-81
2022/04/05 06:21:10;;;;;;;8.27;5.57;;;;;;;7.76;67.09;96583.91;5026282;28;20037;-81
2022/04/05 06:23:35;;;;;;;7.55;5.05;;;;;;;7.69;66.93;96569.34;5027204;28;20084;-80
2022/04/05 06:26:00;;;;;;;6.57;5.05;;;;;;;7.95;66.68;96587.00;5025999;28;20272;-81
2022/04/05 06:28:26;;;;;;;6.32;5.00;;;;;;;8.03;66.32;96589.94;5026390;28;20026;-79
2022/04/05 06:30:51;;;;;;;6.68;4.97;;;;;;;8.11;65.70;96588.75;4993610;28;20071;-80
2022/04/05 06:33:21;;;;;;;7.85;4.93;;;;;;;8.00;66.15;96587.84;5025606;28;20022;-80
2022/04/05 06:35:50;;;;;;;6.47;4.82;;;;;;;8.00;66.48;96597.41;5025953;28;20037;-80
2022/04/05 06:38:15;;;;;;;6.28;5.25;;;;;;;7.99;66.43;96601.06;5026037;28;20026;-80
2022/04/05 06:40:41;;;;;;;6.47;5.20;;;;;;;7.87;66.90;96603.75;5026310;28;20037;-81
2022/04/05 06:43:07;;;;;;;7.63;5.05;;;;;;;7.74;67.68;96609.28;5025527;28;20064;-81
2022/04/05 06:45:32;;;;;;;7.32;4.75;;;;;;;7.99;66.47;96601.84;5026258;28;20350;-80
2022/04/05 06:47:58;;;;;;;7.18;5.03;;;;;;;7.87;67.29;96598.59;5012779;28;20044;-81
2022/04/05 06:50:27;;;;;;;6.78;4.97;;;;;;;7.88;66.93;96602.72;5013364;28;20393;-80
2022/04/05 06:53:02;;;;;;;8.88;5.38;;;;;;;7.71;67.30;96609.75;5029697;28;20037;-80
2022/04/05 06:55:28;;;;;;;8.13;5.25;;;;;;;7.81;67.58;96608.13;5046079;28;20030;-80
2022/04/05 06:57:54;;;;;;;7.78;5.13;;;;;;;7.94;67.00;96603.59;5029911;28;20377;-81
2022/04/05 07:00:23;;;;;;;7.63;5.43;;;;;;;7.90;67.33;96610.25;5029579;28;20037;-80
2022/04/05 07:02:49;;;;;;;7.35;5.38;;;;;;;7.86;66.70;96607.38;5026709;28;20025;-81
2022/04/05 07:05:15;;;;;;;8.05;5.13;;;;;;;8.10;66.42;96612.31;5009516;28;20297;-80
2022/04/05 07:07:41;;;;;;;7.63;5.03;;;;;;;7.86;67.54;96597.81;5035369;28;20693;-80
2022/04/05 07:10:08;;;;;;;6.38;5.00;;;;;;;7.74;67.45;96604.88;5029848;28;20064;-81
2022/04/05 07:12:34;;;;;;;6.57;4.80;;;;;;;8.01;66.32;96602.38;5045778;28;20032;-80
2022/04/05 07:14:59;;;;;;;6.82;5.30;;;;;;;8.02;66.76;96596.16;5045373;28;20029;-81
2022/04/05 07:17:28;;;;;;;6.50;4.75;;;;;;;7.88;67.61;96597.53;5012891;28;20063;-83
2022/04/05 07:19:53;;;;;;;7.28;4.75;;;;;;;8.00;66.95;96603.41;5013441;28;20026;-80
2022/04/05 07:22:19;;;;;;;7.13;5.43;;;;;;;7.85;67.09;96601.41;5029473;28;20034;-81
2022/04/05 07:24:46;;;;;;;6.32;4.25;;;;;;;8.00;67.29;96611.19;5045304;28;20045;-82
2022/04/05 07:27:12;;;;;;;6.78;4.75;;;;;;;7.75;67.68;96590.13;5029392;28;20053;-81
2022/04/05 07:29:37;;;;;;;6.55;5.10;;;;;;;7.90;67.78;96587.75;5029055;28;20087;-81
2022/04/05 07:32:03;;;;;;;6.55;4.60;;;;;;;7.98;67.60;96591.69;5012616;28;20116;-80
2022/04/05 07:34:28;;;;;;;6.95;4.70;;;;;;;7.70;68.85;96593.44;5029922;28;20032;-82
2022/04/05 07:36:54;;;;;;;7.55;5.13;;;;;;;7.86;67.74;96592.63;5012551;28;20731;-79
2022/04/05 07:39:21;;;;;;;6.90;4.68;;;;;;;8.17;67.12;96599.94;5028751;28;20028;-80
2022/04/05 07:41:47;;;;;;;6.63;4.78;;;;;;;7.88;67.68;96595.75;5028640;28;20272;-81
2022/04/05 07:44:13;;;;;;;5.90;4.60;;;;;;;8.15;66.85;96599.41;5028344;28;20504;-81
2022/04/05 07:46:38;;;;;;;7.68;4.70;;;;;;;8.07;67.06;96598.81;5045705;28;20037;-81
2022/04/05 07:49:04;;;;;;;6.72;4.97;;;;;;;8.03;67.13;96597.72;5045284;28;20065;-80
2022/04/05 07:51:29;;;;;;;6.00;3.95;;;;;;;8.05;67.82;96598.28;5028475;28;20553;-81
2022/04/05 07:53:55;;;;;;;4.60;3.70;;;;;;;7.99;67.32;96595.88;5011813;28;20017;-79
2022/04/05 07:56:20;;;;;;;5.53;4.50;;;;;;;8.12;67.42;96595.47;5028454;28;20382;-80
2022/04/05 07:58:47;;;;;;;6.55;4.10;;;;;;;8.04;67.95;96598.53;5044035;28;20037;-82
2022/04/05 08:01:12;;;;;;;8.70;5.78;;;;;;;7.88;68.36;96582.78;5022995;28;20454;-82
2022/04/05 08:03:38;;;;;;;7.22;4.57;;;;;;;8.12;68.30;96594.72;5024679;28;20026;-80
2022/04/05 08:06:03;;;;;;;6.65;4.82;;;;;;;7.99;68.41;96599.25;5009956;28;20026;-80
2022/04/05 08:08:29;;;;;;;7.18;5.07;;;;;;;8.11;68.27;96598.34;5028279;28;20099;-81
2022/04/05 08:10:55;;;;;;;7.93;4.68;;;;;;;8.18;68.42;96601.53;5028411;28;20482;-80
2022/04/05 08:13:22;;;;;;;7.07;4.85;;;;;;;8.01;68.81;96593.81;5011332;28;20625;-82
2022/04/05 08:15:48;;;;;;;5.32;4.25;;;;;;;8.16;67.69;96603.59;5028304;28;20677;-80
2022/04/05 08:18:16;;;;;;;6.32;4.82;;;;;;;8.32;67.25;96602.72;5044948;28;20033;-80
2022/04/05 08:20:41;;;;;;;8.82;5.30;;;;;;;8.40;67.76;96612.66;5028346;28;20033;-80
2022/04/05 08:23:08;;;;;;;7.10;4.80;;;;;;;8.25;67.37;96609.91;5011180;28;20029;-82
2022/04/05 08:25:33;;;;;;;7.03;5.15;;;;;;;8.21;68.17;96607.00;5028019;28;20041;-82
2022/04/05 08:27:59;;;;;;;5.80;4.80;;;;;;;8.19;68.34;96610.84;5011413;28;20035;-81
2022/04/05 08:30:24;;;;;;;5.78;4.45;;;;;;;8.09;68.60;96611.53;5011656;28;20292;-80
2022/04/05 08:32:50;;;;;;;7.10;4.88;;;;;;;8.35;67.90;96611.81;5027549;28;20026;-80
2022/04/05 08:35:18;;;;;;;7.72;5.20;;;;;;;8.31;68.16;96615.91;5011724;28;20557;-80
2022/04/05 08:37:44;;;;;;;6.38;5.07;;;;;;;8.36;68.14;96611.59;5044538;28;20217;-80
2022/04/05 08:40:12;;;;;;;7.43;5.38;;;;;;;8.46;67.39;96620.53;5028094;28;20566;-81
2022/04/05 08:42:41;;;;;;;7.07;5.00;;;;;;;8.63;66.74;96610.81;4994481;28;20124;-80
2022/04/05 08:45:10;;;;;;;8.98;5.15;;;;;;;8.63;66.97;96610.81;4994763;28;20128;-80
2022/04/05 08:47:35;;;;;;;9.07;5.22;;;;;;;8.69;67.10;96624.63;5027705;28;20397;-80
2022/04/05 08:50:03;;;;;;;7.47;5.47;;;;;;;8.72;67.11;96624.94;4994685;28;20030;-80
2022/04/05 08:52:28;;;;;;;6.90;5.57;;;;;;;8.86;67.52;96620.13;5027605;28;20036;-79
2022/04/05 08:54:54;;;;;;;7.30;5.10;;;;;;;9.01;66.83;96622.06;5027298;28;20030;-80
2022/04/05 08:57:20;;;;;;;8.10;5.18;;;;;;;8.92;66.96;96626.91;5027550;28;20045;-81
2022/04/05 08:59:45;;;;;;;6.65;5.40;;;;;;;8.97;66.87;96624.38;5027467;28;20440;-79
2022/04/05 09:02:11;;;;;;;6.15;5.07;;;;;;;9.01;66.37;96627.25;5013759;28;20030;-79
2022/04/05 09:04:37;;;;;;;7.65;5.35;;;;;;;8.66;67.84;96627.72;5006975;28;20033;-81
2022/04/05 09:07:28;;;;;;;7.47;5.38;;;;;;;8.49;67.91;96628.59;5033866;28;20494;-81
2022/04/05 09:10:09;;;;;;;5.95;5.22;;;;;;;8.74;66.71;96622.06;4994270;28;20029;-79
2022/04/05 09:12:41;;;;;;;7.47;5.93;;;;;;;9.03;66.94;96622.63;5028321;28;20412;-79
2022/04/05 09:15:16;;;;;;;7.10;5.90;;;;;;;8.63;67.94;96621.22;5027563;28;20091;-80
2022/04/05 09:17:43;;;;;;;7.32;5.45;;;;;;;8.77;68.21;96622.41;5028407;28;20091;-79
2022/04/05 09:20:09;;;;;;;8.13;5.63;;;;;;;9.05;67.41;96617.94;5027344;28;20033;-79
2022/04/05 09:22:35;;;;;;;7.13;5.85;;;;;;;9.18;66.53;96621.94;4993858;28;20322;-80
2022/04/05 09:25:07;;;;;;;7.93;5.93;;;;;;;9.08;66.51;96617.47;5027139;28;20245;-79
2022/04/05 09:27:50;;;;;;;9.23;6.80;;;;;;;8.46;68.54;96623.88;5010765;28;20033;-78
2022/04/05 09:30:17;;;;;;;8.02;5.50;;;;;;;8.92;67.57;96634.72;5026892;28;20032;-79
2022/04/05 09:32:47;;;;;;;7.95;5.97;;;;;;;9.04;67.03;96628.59;5026794;28;20034;-79
2022/04/05 09:35:13;;;;;;;9.07;6.22;;;;;;;8.98;67.73;96625.16;5026878;28;20021;-80
2022/04/05 09:37:39;;;;;;;9.52;5.50;;;;;;;9.12;66.81;96641.91;5043646;28;20037;-79
2022/04/05 09:40:32;;;;;;;8.07;6.18;;;;;;;8.70;67.95;96632.16;5010459;28;20108;-80
2022/04/05 09:43:12;;;;;;;7.32;5.60;;;;;;;9.02;67.57;96639.22;5026232;28;20037;-79
2022/04/05 09:45:58;;;;;;;7.25;5.15;;;;;;;8.94;67.53;96639.66;5010261;28;20034;-79
2022/04/05 09:48:26;;;;;;;6.55;4.93;;;;;;;9.25;66.07;96635.47;5027158;28;20203;-79
2022/04/05 09:51:16;;;;;;;7.63;5.40;;;;;;;8.86;67.69;96640.09;5026205;28;20493;-78
2022/04/05 09:53:54;;;;;;;6.35;5.05;;;;;;;8.95;67.47;96636.81;5026501;28;20390;-79
2022/04/05 09:56:26;;;;;;;9.73;5.90;;;;;;;8.91;68.60;96627.97;5026510;28;20025;-80
2022/04/05 09:59:13;;;;;;;6.75;5.70;;;;;;;8.75;67.52;96634.03;5042867;28;20040;-79
2022/04/05 10:01:39;;;;;;;6.47;5.18;;;;;;;9.13;67.80;96635.69;5026407;28;20382;-80
2022/04/05 10:04:08;;;;;;;7.38;6.00;;;;;;;9.08;67.44;96635.63;5026164;28;20059;-80
2022/04/05 10:06:38;;;;;;;8.13;5.82;;;;;;;8.84;68.35;96629.19;5026500;28;20025;-79
2022/04/05 10:09:04;;;;;;;7.88;5.40;;;;;;;9.32;67.05;96630.09;5043355;28;20071;-79
2022/04/05 10:11:32;;;;;;;6.45;4.82;;;;;;;9.08;68.02;96627.84;4993834;28;20120;-80
2022/04/05 10:13:59;;;;;;;7.75;5.22;;;;;;;9.45;66.24;96634.84;5009531;28;20031;-79
2022/04/05 10:16:27;;;;;;;6.68;5.43;;;;;;;9.35;66.79;96639.97;5025412;28;20029;-79
2022/04/05 10:18:57;;;;;;;5.57;4.78;;;;;;;9.37;66.68;96633.53;5025668;28;20489;-80
2022/04/05 10:21:22;;;;;;;6.00;4.78;;;;;;;9.40;66.88;96624.44;5010575;28;20029;-79
2022/04/05 10:23:48;;;;;;;5.72;4.57;;;;;;;9.57;66.23;96626.88;5020536;28;20041;-79
2022/04/05 10:26:16;;;;;;;6.88;4.78;;;;;;;9.78;66.01;96630.38;5031282;28;20083;-80
2022/04/05 10:28:43;;;;;;;6.65;5.03;;;;;;;9.72;65.62;96634.00;5046932;28;20030;-79
2022/04/05 10:31:31;;;;;;;7.68;4.75;;;;;;;9.66;66.35;96630.56;5030204;28;20033;-80
2022/04/05 10:34:19;;;;;;;6.63;5.22;;;;;;;9.36;66.76;96637.13;5046424;28;20064;-80
2022/04/05 10:37:05;;;;;;;6.30;4.80;;;;;;;9.44;66.69;96638.50;5029978;28;20080;-80
2022/04/05 10:39:30;;;;;;;5.80;4.47;;;;;;;9.68;66.15;96630.31;5013960;28;20026;-80
2022/04/05 10:42:08;;;;;;;6.63;5.22;;;;;;;9.46;66.34;96638.22;5029856;28;20055;-79
2022/04/05 10:44:34;;;;;;;7.00;5.30;;;;;;;9.54;66.85;96629.97;5046188;28;20535;-80
2022/04/05 10:47:03;;;;;;;7.53;5.40;;;;;;;9.56;66.23;96635.69;5030550;28;20037;-79
2022/04/05 10:49:35;;;;;;;6.20;5.38;;;;;;;9.69;65.86;96627.47;5013742;28;20061;-79
2022/04/05 10:52:04;;;;;;;5.93;4.97;;;;;;;9.70;65.90;96623.84;5046525;28;20025;-80
2022/04/05 10:54:36;;;;;;;7.57;5.78;;;;;;;9.57;66.83;96627.66;5030528;28;20113;-79
2022/04/05 10:57:20;;;;;;;8.25;6.13;;;;;;;9.52;66.71;96626.84;4997067;28;20037;-79
2022/04/05 10:59:53;;;;;;;6.75;5.30;;;;;;;9.62;66.18;96636.53;5013064;28;20044;-80
2022/04/05 11:02:33;;;;;;;7.53;6.00;;;;;;;9.62;65.50;96626.13;5014683;28;20029;-80
2022/04/05 11:05:14;;;;;;;8.30;5.70;;;;;;;9.50;66.26;96624.50;4993162;28;20026;-81
2022/04/05 11:07:52;;;;;;;7.97;6.00;;;;;;;9.61;65.82;96627.94;5010037;28;20030;-79
2022/04/05 11:10:30;;;;;;;9.10;5.97;;;;;;;9.56;66.82;96633.09;5011014;28;20042;-80
2022/04/05 11:13:15;;;;;;;8.20;6.65;;;;;;;9.63;66.47;96627.69;5039802;28;20030;-80
2022/04/05 11:15:45;;;;;;;9.50;6.75;;;;;;;9.63;66.45;96625.88;5013677;28;20044;-79
2022/04/05 11:18:10;;;;;;;10.30;7.38;;;;;;;9.50;67.50;96632.28;5029344;28;20087;-80
2022/04/05 11:20:38;;;;;;;10.77;7.30;;;;;;;9.25;67.88;96630.28;4996285;28;20076;-81
2022/04/05 11:23:05;;;;;;;8.93;6.85;;;;;;;9.48;67.12;96636.97;5028646;28;20532;-79
2022/04/05 11:25:31;;;;;;;10.85;7.55;;;;;;;9.73;66.85;96643.34;4996598;28;20125;-79
2022/04/05 11:28:09;;;;;;;11.00;7.90;;;;;;;9.67;66.70;96631.34;5045655;28;20536;-79
2022/04/05 11:30:37;;;;;;;10.30;8.13;;;;;;;9.72;66.33;96639.97;5029239;28;20083;-80
2022/04/05 11:33:15;;;;;;;10.13;7.78;;;;;;;9.69;66.77;96642.28;5045155;28;20061;-81
2022/04/05 11:35:44;;;;;;;10.88;8.05;;;;;;;9.55;67.61;96632.31;5029019;28;20120;-80
2022/04/05 11:38:18;;;;;;;12.05;8.52;;;;;;;9.72;66.64;96639.19;5045860;28;20065;-79
2022/04/05 11:40:43;;;;;;;9.98;7.47;;;;;;;9.53;67.29;96629.19;5045412;28;20025;-79
2022/04/05 11:43:18;;;;;;;11.65;8.07;;;;;;;9.49;67.67;96638.53;5028447;28;20034;-79